Montrose, Missouri
Current Conditions -  °F | °C
As of 10:15 AM on Monday 26 Jan 2015 (Local Time) from KGLY Reporting Station
Clear Clear  
Wind Chill: 32°   Ceiling: Unl
Heat Index: 39°   Visibility: 9mi
Dew Point: 34°   Wind: 12mph
Humidity: 81%   Direction: 200°SSW
Pressure: 30.03"   Gusts: NA
Location:  38.26°N, 93.98°W
Report Text: KGLY 261615Z AUTO 20010KT 9SM CLR 04/01 A3003 RMK AO2
Loading
Personal Weather Stations






























Interactive Weather Map New forecast layout! Learn more

10-Day Weather Forecast

Advertisements
Track Severe Weather on mobile